Terminal Aerodrome Forecast
Issued by NWS Wilmington, OH

Current Version | Previous Version | Graphics & Text | Print | Product List | Glossary On
Versions: 1 2 3 4 5 6 7 8 9 10 11 12 13 14 15 16 17 18 19
000
FTUS41 KILN 161700
TAFILN
TAF
KILN 161737Z 1618/1718 16010KT P6SM VCSH OVC025
      TEMPO 1618/1620 OVC015
     FM162200 18006KT P6SM VCTS OVC025CB
      TEMPO 1622/1701 5SM -SHRA OVC015
     FM170200 19005KT 4SM BR VCSH OVC015
     FM170400 24006KT 2SM BR OVC007
     FM171400 33006KT P6SM SCT025=

USA.gov is the U.S. government's official web portal to all federal, state and local government web resources and services.